Kezdőlap
METAR-TAF:

METAR-TAF

Repülőterek :

Bázel

Bázel-Mulhouse-Freiburg, Franciaország

földrajzi szélesség: 47-36N, földrajzi hosszúság: 007-31E, magasság: 270 m

Jelenlegi meteorológiai megfigyelések

A jelentés 19 perccel ezelõtt készült, 13:30 UTC
Délkeleti szél 6 kt
Hőmérséklet 17°C
Páratartalom 32%
Légköri nyomás 1023 hPa
Látótávolság 10 km, vagy több
felhőtlen 1500 m magasságban, és nincs gomolyfelhõ

METAR: LFSB 171330Z 14006KT CAVOK 17/00 Q1023 NOSIG

Idő: 14:49 (13:49 UTC)

Előrejelzés

A jelentés 2 órával és 49 perccel ezelõtt készült, 11:00 UTC
Az előrejelzés 17-én 12 óra UTC és 18-én 12 óra UTC között érvényes
Keleti szél 5 kt
Látótávolság 10 km, vagy több
felhőtlen 1500 m magasságban, és nincs gomolyfelhõ
17-én 18 óra UTC és 17-én 20 óra UTC között fokozatosan kialakuló
Dél-délnyugati szél 5 kt

TAF: LFSB 171100Z 1712/1812 10005KT CAVOK BECMG 1718/1720 20005KT

Meteorológiai megfigyelések és előrejelzések több, mint 4000 repülőtéren (METAR és TAF jelentéseket).

A térképen piros és sárga pontok jelzik az elérhető meteorológiai állomásokat.

Mozgassa az egeret a pont fölött, hogy megjelenjen az állomás neve.

Azután kattintson az időjárási megfigyelések és előrejelzések megtekintéséhez.

A térkép megváltoztatása: kattintson a fekete keresztel jelölt zöld gombra ráközelítéshez, a vonallal jelölt zöld gombra távolításhoz, vagy a zöld nyilakra a szomszédos térképek eléréséhez.


METAR-TAF: